Aktualne dane pomiarowe

Uwaga, wersja testowa! Automatyczne pobieranie danych za pomocą narzędzi lub skryptów to umożliwiających jest zabronione.

Dane meteo z obszaru Polski uzyskane na podstawie depesz SYNOP pobieranych co godzinę z NWS. Najedź myszką na symbol przedstawiony w tabeli, aby uzyskać informacje co do jego znaczenia. Prosimy pamiętać, że to testowa wersja strony, która jeszcze nie jest ukończona. Stworzono również jest krótki FAQ dotyczący korzystania z tej podstrony Anomalie temperatury w chwili obecnej odniesione są do okresu referencyjnego 1951-2016. Okres ten będzie później zmieniony na 1981-2010. Kliknij ikonę aby pobrać plik CSV. Kliknij ikonę aby wygenerować mapę synoptyczną dla danego terminu.

Wybierz Datę:    

        

Jelenia Góra (12500)

Dane terminowe dla wybranej stacji. Kliknij datę, aby otrzymać dane z tego terminu dla wszystkich stacji.

TemperaturaZachmurzenieWiatrCiśnienieOpadyPogoda
 Data t td wb tx tn tg rh  Nt Nl Cl Cm Ch ws wd g1 g2 wx mslp ppp ch 24h 12h t ww ww w1 w2  
2019-07-20 23:00:00 17.7 15.0 15.8--- 8430.0wx-wx1wx--11013.9 973.8 -0.9---------
2019-07-20 22:00:00 18.0 14.3 15.5--- 7935.0wx-wx0---01014.4 974.3 0.1---------
2019-07-20 21:00:00 18.3 15.2 16.2--- 8230.0wx-wx1wx---1014.6 974.5 0.4---------
2019-07-20 20:00:00 19.7 14.9 16.5--- 7440.0wx-wx1wx--11014.6 974.7 0.6---------
2019-07-20 19:00:00 22.9 15.2 17.9--- 6230.0wx-wx1wx--11013.6 974.2 -0.2---------
2019-07-20 18:00:00 25.2 14.9 18.6 28.9 18.5- 5350.0wx-wxwx1wx--11013.2 974.1 -0.7- 0.012------
2019-07-20 17:00:00 27.3 12.1 18.1--- 3945.0wxwxwxwxwx2wx--21012.9 974.1 -0.9---------
2019-07-20 16:00:00 28.7 12.2 18.7--- 3645.0wxwxwxwxwx3wx--31013.1 974.4 -1.0---------
2019-07-20 15:00:00 28.2 12.5 18.6--- 3845.0wxwxwxwx1wx---1013.5 974.8 -0.8---------
2019-07-20 14:00:00 28.0 12.4 18.5--- 3840.0wxwxwxwx2wx--21013.8 975.0 -0.9---------
2019-07-20 13:00:00 27.7 12.9 18.6--- 4040.0wxwxwxwx2wx--21014.2 975.4 -0.6---------
2019-07-20 12:00:00 26.5 14.3 18.8--- 4740.0wxwxwxwx2wx--21014.6 975.6 -0.8- 0.06------
2019-07-20 11:00:00 25.7 13.9 18.3--- 4840.0wxwxwxwx2wx--21015.0 975.9 -0.4---------
2019-07-20 10:00:00 24.6 14.1 18.0--- 5240.0wxwxwxwx2wx--21015.3 976.0 -0.4---------
2019-07-20 09:00:00 24.0 14.1 17.7--- 5435.0wxwxwxwx1wx--11015.8 976.4 -0.1---------
2019-07-20 08:00:00 23.1 14.1 17.4--- 5735.0wxwxwxwx1wx--11015.8 976.3 -0.2---------
2019-07-20 07:00:00 21.3 15.4 17.4--- 6930.0wxwxwxwxwx1wx--11016.1 976.4 -0.1---------
2019-07-20 06:00:00 18.5 15.2 16.2 18.8 13.2 11 8130.0wxwxwxwxwx1wx--11016.6 976.5 0.2 1.6 0.012----- 4.9
2019-07-20 05:00:00 15.4 14.4 14.7--- 9420.0wxwxwxwx0----1017.1 976.5 0.2---------
2019-07-20 04:00:00 13.8 13.5 13.6--- 9820.0wx-wx1wx--11017.3 976.5 0.4---------
2019-07-20 03:00:00 13.3 13.0 13.0--- 9810.0wx-wx0---01017.2 976.3 0.2---------
2019-07-20 02:00:00 13.4 13.1 13.1--- 9810.0wx-wx1wx--11017.1 976.3 0.2---------
2019-07-20 01:00:00 14.1 13.8 13.9--- 9810.0wx-wx0---01016.8 976.1 0.1---------
2019-07-20 00:00:00 14.1 13.6 13.7--- 9710.0wx-wx0---01016.8 976.1 0.2- 0.06------
2019-07-19 23:00:00 15.0 14.7 14.8--- 9810.0wx-wx1wx---1016.7 976.1 0.3---------
2019-07-19 22:00:00 15.7 14.9 15.1--- 9510.0wx-wx0---01016.5 976.0 0.8---------
2019-07-19 21:00:00 16.6 15.5 15.8--- 9310.0wxwxwxwx1wx--11016.3 975.9 1.0---------
2019-07-19 20:00:00 16.5 14.9 15.4--- 9020.0wxwxwx0---01016.2 975.8 0.7---------
2019-07-19 19:00:00 17.6 15.8 16.3--- 8920.0wxwxwxwx2wx--21015.4 975.2 0.2---------
2019-07-19 18:00:00 18.7 15.6 16.5 24.6 16.7- 8228.0wxwxwxwx1wx--11014.9 974.9 -0.2- 2.012wx-w1--
2019-07-19 17:00:00 20.1 15.1 16.7--- 7329.0wxwxwxwx1wx--11014.9 975.1 -0.1---wx-w1--
2019-07-19 16:00:00 21.9 13.8 16.7--- 6035.0wxwxwxwxwx1wx--11014.6 975.0 -0.4---------
2019-07-19 15:00:00 22.0 15.6 17.8--- 6730.0wxwxwxwxwx1wx--11014.7 975.1 -0.2---wx-w1--
2019-07-19 14:00:00 21.4 15.9 17.7--- 7130.0wxwxwxwxwx2wx--21014.9 975.2 0.4---------
2019-07-19 13:00:00 19.9 17.1 17.9--- 8424.0wxwxwxwx2wx--21015.3 975.4 0.5---wx-w1--
2019-07-19 12:00:00 20.8 15.3 17.1--- 7119.0wxwxwx2wx--21015.1 975.3 0.5- 0.26wx---
2019-07-19 11:00:00 23.8 11.1 16.2--- 4535.0wxwxwxwxwx2wx--21014.1 974.8 0.5---------
2019-07-19 10:00:00 23.1 11.2 15.9--- 4730.0wxwxwxwx2wx--21014.3 974.9 0.9---------
2019-07-19 09:00:00 20.8 12.0 15.4--- 5730.0wxwxwxwx2wx--21014.5 974.8 1.0---------
2019-07-19 08:00:00 22.9 12.2 16.3--- 5140.0wxwxwxwxwx1wx--11013.7 974.3 0.8---------
2019-07-19 07:00:00 19.1 12.8 15.1--- 6735.0wx-wxwx1wx--11013.9 974.0 0.7---------
2019-07-19 06:00:00 16.7 12.2 13.8 22.2 10.3 9 7535.0wx-wxwx1wx--11014.1 973.8 0.4- 0.012----- 11.5
2019-07-19 05:00:00 13.4 12.5 12.7--- 9418.0wx-wx0---01014.2 973.5 0.0---------
2019-07-19 04:00:00 11.6 10.7 10.9--- 9416.0wxwxwxwx0---01014.3 973.3 -0.2---------
2019-07-19 03:00:00 11.2 10.3 10.5--- 9419.0wx-wx1wx--11014.4 973.4 -0.1---wx---
2019-07-19 02:00:00 10.3 9.5 9.7--- 9514.0wx-wx0---01014.7 973.5 0.0---wx---
2019-07-19 01:00:00 11.1 10.0 10.3--- 9320.0wx-wx0---01014.6 973.5 0.1---wx---
2019-07-19 00:00:00 11.7 10.3 10.7--- 9121.0wx-wx1wx--11014.5 973.5 0.1- 0.06------
1.2 ms

 

Print Friendly, PDF & Email